DLH1XC EDDV-EDDF
Flight info
| Callsign | DLH1XC |
|---|---|
| Flight time | 0h 33m |
| Altitude | 18000 |
| Route | TOLTA1S TOLTA T154 ROBAR T152 KERAX KERAX5A |
| Aircraft | A321/M-SDE3FGHIRWY/LB1 |
Departure
| Time | 2026-05-06 03:53 |
|---|---|
| Airport | Hannover Airport (EDDV) |
Arrival
| Time | 2026-05-06 04:26 |
|---|---|
| Airport | Frankfurt Main Airport (EDDF) |
| Time | Latitude | Longitude | Altitude | Speed | Heading |
|---|---|---|---|---|---|
| 2026-05-06 03:28 | 52.45834 | 9.69314 | 179 ft | 0 kts | 52° |
| 2026-05-06 03:45 | 52.45831 | 9.69309 | 178 ft | 3 kts | 51° |
| 2026-05-06 03:45 | 52.45815 | 9.69274 | 178 ft | 4 kts | 51° |
| 2026-05-06 03:46 | 52.45796 | 9.69247 | 178 ft | 4 kts | 11° |
| 2026-05-06 03:46 | 52.45773 | 9.69253 | 178 ft | 4 kts | 324° |
| 2026-05-06 03:46 | 52.45768 | 9.69258 | 178 ft | 0 kts | 321° |
| 2026-05-06 03:48 | 52.45769 | 9.69257 | 178 ft | 1 kts | 321° |
| 2026-05-06 03:48 | 52.45786 | 9.69235 | 178 ft | 7 kts | 321° |
| 2026-05-06 03:48 | 52.45848 | 9.69155 | 177 ft | 15 kts | 321° |
| 2026-05-06 03:48 | 52.45935 | 9.69046 | 178 ft | 16 kts | 326° |
| 2026-05-06 03:49 | 52.46028 | 9.68937 | 177 ft | 18 kts | 321° |
| 2026-05-06 03:49 | 52.46123 | 9.68816 | 179 ft | 17 kts | 322° |
| 2026-05-06 03:49 | 52.46208 | 9.68741 | 180 ft | 13 kts | 360° |
| 2026-05-06 03:49 | 52.46267 | 9.68842 | 181 ft | 14 kts | 67° |
| 2026-05-06 03:50 | 52.46303 | 9.68990 | 182 ft | 14 kts | 68° |
| 2026-05-06 03:50 | 52.46340 | 9.69143 | 182 ft | 15 kts | 68° |
| 2026-05-06 03:50 | 52.46382 | 9.69314 | 182 ft | 17 kts | 68° |
| 2026-05-06 03:50 | 52.46423 | 9.69493 | 181 ft | 18 kts | 69° |
| 2026-05-06 03:51 | 52.46469 | 9.69682 | 179 ft | 13 kts | 68° |
| 2026-05-06 03:51 | 52.46493 | 9.69779 | 178 ft | 10 kts | 68° |
| 2026-05-06 03:51 | 52.46521 | 9.69894 | 175 ft | 13 kts | 63° |
| 2026-05-06 03:51 | 52.46595 | 9.69948 | 176 ft | 11 kts | 0° |
| 2026-05-06 03:52 | 52.46659 | 9.69949 | 178 ft | 8 kts | 0° |
| 2026-05-06 03:52 | 52.46695 | 9.69921 | 179 ft | 5 kts | 285° |
| 2026-05-06 03:52 | 52.46699 | 9.69838 | 178 ft | 13 kts | 274° |
| 2026-05-06 03:52 | 52.46719 | 9.69178 | 177 ft | 105 kts | 272° |
| 2026-05-06 03:53 | 52.46758 | 9.67537 | 226 ft | 176 kts | 272° |
| 2026-05-06 03:53 | 52.46780 | 9.65445 | 975 ft | 193 kts | 272° |
| 2026-05-06 03:53 | 52.46755 | 9.63198 | 1780 ft | 204 kts | 269° |
| 2026-05-06 03:53 | 52.46730 | 9.60725 | 2004 ft | 228 kts | 271° |
| 2026-05-06 03:54 | 52.46760 | 9.58073 | 2501 ft | 235 kts | 271° |
| 2026-05-06 03:54 | 52.46539 | 9.55429 | 3149 ft | 237 kts | 244° |
| 2026-05-06 03:54 | 52.45523 | 9.53369 | 3875 ft | 237 kts | 211° |
| 2026-05-06 03:54 | 52.44098 | 9.51984 | 4623 ft | 239 kts | 207° |
| 2026-05-06 03:55 | 52.42644 | 9.50622 | 5397 ft | 242 kts | 208° |
| 2026-05-06 03:55 | 52.41138 | 9.49209 | 5892 ft | 260 kts | 208° |
| 2026-05-06 03:55 | 52.39520 | 9.47691 | 6396 ft | 273 kts | 209° |
| 2026-05-06 03:55 | 52.37856 | 9.46128 | 7116 ft | 277 kts | 208° |
| 2026-05-06 03:56 | 52.36179 | 9.44549 | 7873 ft | 279 kts | 206° |
| 2026-05-06 03:56 | 52.34467 | 9.43000 | 8589 ft | 282 kts | 201° |
| 2026-05-06 03:56 | 52.32589 | 9.42069 | 9297 ft | 283 kts | 186° |
| 2026-05-06 03:56 | 52.30623 | 9.42009 | 9975 ft | 284 kts | 172° |
| 2026-05-06 03:57 | 52.28610 | 9.42333 | 10328 ft | 301 kts | 172° |
| 2026-05-06 03:57 | 52.26445 | 9.42675 | 10464 ft | 323 kts | 173° |
| 2026-05-06 03:57 | 52.24135 | 9.43031 | 10588 ft | 344 kts | 173° |
| 2026-05-06 03:57 | 52.21701 | 9.43399 | 10896 ft | 356 kts | 173° |
| 2026-05-06 03:58 | 52.19213 | 9.43769 | 11418 ft | 361 kts | 173° |
| 2026-05-06 03:58 | 52.16704 | 9.44139 | 12055 ft | 363 kts | 173° |
| 2026-05-06 03:58 | 52.14176 | 9.44515 | 12655 ft | 366 kts | 175° |
| 2026-05-06 03:58 | 52.11646 | 9.44895 | 13275 ft | 368 kts | 176° |
| 2026-05-06 03:59 | 52.09101 | 9.45276 | 13811 ft | 371 kts | 176° |
| 2026-05-06 03:59 | 52.06519 | 9.45658 | 14319 ft | 374 kts | 176° |
| 2026-05-06 03:59 | 52.03917 | 9.46040 | 14857 ft | 377 kts | 176° |
| 2026-05-06 03:59 | 52.01297 | 9.46425 | 15378 ft | 380 kts | 175° |
| 2026-05-06 04:00 | 51.98653 | 9.46820 | 15887 ft | 383 kts | 175° |
| 2026-05-06 04:00 | 51.95991 | 9.47218 | 16406 ft | 385 kts | 175° |
| 2026-05-06 04:00 | 51.93310 | 9.47617 | 16889 ft | 389 kts | 175° |
| 2026-05-06 04:00 | 51.90606 | 9.48018 | 17383 ft | 392 kts | 175° |
| 2026-05-06 04:01 | 51.87879 | 9.48420 | 17854 ft | 395 kts | 176° |
| 2026-05-06 04:01 | 51.85129 | 9.48824 | 18298 ft | 398 kts | 176° |
| 2026-05-06 04:01 | 51.82396 | 9.49228 | 19025 ft | 392 kts | 175° |
| 2026-05-06 04:01 | 51.79686 | 9.49629 | 19579 ft | 391 kts | 175° |
| 2026-05-06 04:02 | 51.76965 | 9.50028 | 20069 ft | 393 kts | 175° |
| 2026-05-06 04:02 | 51.74233 | 9.50429 | 20523 ft | 396 kts | 175° |
| 2026-05-06 04:02 | 51.71478 | 9.50613 | 20951 ft | 397 kts | 184° |
| 2026-05-06 04:02 | 51.68737 | 9.49999 | 21402 ft | 399 kts | 194° |
| 2026-05-06 04:03 | 51.66100 | 9.48572 | 21831 ft | 402 kts | 204° |
| 2026-05-06 04:03 | 51.63632 | 9.46417 | 22268 ft | 405 kts | 210° |
| 2026-05-06 04:03 | 51.61199 | 9.44097 | 22701 ft | 408 kts | 210° |
| 2026-05-06 04:03 | 51.58779 | 9.41799 | 23113 ft | 411 kts | 210° |
| 2026-05-06 04:04 | 51.56311 | 9.39463 | 23491 ft | 414 kts | 209° |
| 2026-05-06 04:04 | 51.53821 | 9.37117 | 23703 ft | 415 kts | 209° |
| 2026-05-06 04:04 | 51.51315 | 9.34762 | 23746 ft | 418 kts | 209° |
| 2026-05-06 04:04 | 51.48792 | 9.32391 | 23749 ft | 425 kts | 209° |
| 2026-05-06 04:05 | 51.46175 | 9.30052 | 23752 ft | 436 kts | 204° |
| 2026-05-06 04:05 | 51.43315 | 9.28269 | 23747 ft | 446 kts | 196° |
| 2026-05-06 04:05 | 51.40276 | 9.27216 | 23745 ft | 450 kts | 187° |
| 2026-05-06 04:05 | 51.37140 | 9.26945 | 23748 ft | 451 kts | 179° |
| 2026-05-06 04:06 | 51.34012 | 9.27108 | 23747 ft | 451 kts | 178° |
| 2026-05-06 04:06 | 51.30872 | 9.27269 | 23752 ft | 451 kts | 178° |
| 2026-05-06 04:06 | 51.27728 | 9.27422 | 23753 ft | 451 kts | 178° |
| 2026-05-06 04:06 | 51.24593 | 9.27569 | 23754 ft | 451 kts | 178° |
| 2026-05-06 04:07 | 51.21452 | 9.27710 | 23756 ft | 451 kts | 178° |
| 2026-05-06 04:07 | 51.18313 | 9.27846 | 23756 ft | 451 kts | 179° |
| 2026-05-06 04:07 | 51.15184 | 9.27980 | 23755 ft | 451 kts | 179° |
| 2026-05-06 04:07 | 51.12044 | 9.28119 | 23753 ft | 451 kts | 179° |
| 2026-05-06 04:08 | 51.08900 | 9.28220 | 23750 ft | 451 kts | 180° |
| 2026-05-06 04:08 | 51.05768 | 9.28207 | 23750 ft | 450 kts | 181° |
| 2026-05-06 04:08 | 51.02635 | 9.28112 | 23749 ft | 450 kts | 181° |
| 2026-05-06 04:08 | 50.99514 | 9.27979 | 23745 ft | 442 kts | 182° |
| 2026-05-06 04:09 | 50.96480 | 9.27948 | 23758 ft | 433 kts | 176° |
| 2026-05-06 04:09 | 50.93511 | 9.28620 | 23756 ft | 431 kts | 167° |
| 2026-05-06 04:09 | 50.90665 | 9.30101 | 23755 ft | 431 kts | 157° |
| 2026-05-06 04:09 | 50.87998 | 9.32284 | 23756 ft | 431 kts | 151° |
| 2026-05-06 04:10 | 50.85384 | 9.34599 | 23754 ft | 431 kts | 151° |
| 2026-05-06 04:10 | 50.82753 | 9.36907 | 23687 ft | 431 kts | 152° |
| 2026-05-06 04:10 | 50.80145 | 9.39179 | 23173 ft | 426 kts | 152° |
| 2026-05-06 04:10 | 50.77564 | 9.41417 | 22482 ft | 419 kts | 153° |
| 2026-05-06 04:11 | 50.75029 | 9.43608 | 21900 ft | 411 kts | 153° |
| 2026-05-06 04:11 | 50.72547 | 9.45752 | 21516 ft | 400 kts | 153° |
| 2026-05-06 04:11 | 50.70129 | 9.47841 | 20948 ft | 394 kts | 153° |
| 2026-05-06 04:11 | 50.67771 | 9.49872 | 20404 ft | 389 kts | 153° |
| 2026-05-06 04:12 | 50.65407 | 9.51906 | 19862 ft | 385 kts | 153° |
| 2026-05-06 04:12 | 50.63070 | 9.53919 | 19346 ft | 380 kts | 153° |
| 2026-05-06 04:12 | 50.60722 | 9.55763 | 18837 ft | 374 kts | 160° |
| 2026-05-06 04:12 | 50.58256 | 9.56977 | 18339 ft | 370 kts | 169° |
| 2026-05-06 04:13 | 50.55725 | 9.57521 | 17758 ft | 365 kts | 179° |
| 2026-05-06 04:13 | 50.53200 | 9.57515 | 17209 ft | 360 kts | 188° |
| 2026-05-06 04:13 | 50.50793 | 9.56580 | 16669 ft | 355 kts | 203° |
| 2026-05-06 04:13 | 50.48662 | 9.54692 | 16126 ft | 351 kts | 218° |
| 2026-05-06 04:14 | 50.46953 | 9.52001 | 15601 ft | 346 kts | 233° |
| 2026-05-06 04:14 | 50.45768 | 9.48744 | 15081 ft | 344 kts | 248° |
| 2026-05-06 04:14 | 50.45048 | 9.45174 | 14537 ft | 341 kts | 253° |
| 2026-05-06 04:14 | 50.44382 | 9.41607 | 14000 ft | 339 kts | 252° |
| 2026-05-06 04:15 | 50.43716 | 9.38073 | 13430 ft | 336 kts | 252° |
| 2026-05-06 04:15 | 50.43051 | 9.34577 | 12846 ft | 333 kts | 252° |
| 2026-05-06 04:15 | 50.42242 | 9.31223 | 12033 ft | 326 kts | 239° |
| 2026-05-06 04:15 | 50.40826 | 9.28493 | 11406 ft | 323 kts | 224° |
| 2026-05-06 04:16 | 50.39213 | 9.26123 | 10907 ft | 320 kts | 224° |
| 2026-05-06 04:16 | 50.37621 | 9.23790 | 10722 ft | 306 kts | 224° |
| 2026-05-06 04:16 | 50.36103 | 9.21576 | 10596 ft | 291 kts | 224° |
| 2026-05-06 04:16 | 50.34654 | 9.19466 | 10426 ft | 279 kts | 224° |
| 2026-05-06 04:17 | 50.33247 | 9.17419 | 10152 ft | 273 kts | 224° |
| 2026-05-06 04:17 | 50.31863 | 9.15405 | 10005 ft | 271 kts | 224° |
| 2026-05-06 04:17 | 50.30483 | 9.13395 | 9995 ft | 271 kts | 224° |
| 2026-05-06 04:17 | 50.29041 | 9.11497 | 9920 ft | 272 kts | 217° |
| 2026-05-06 04:18 | 50.27493 | 9.09775 | 9428 ft | 274 kts | 216° |
| 2026-05-06 04:18 | 50.25922 | 9.08094 | 8972 ft | 273 kts | 216° |
| 2026-05-06 04:18 | 50.24357 | 9.06440 | 8550 ft | 272 kts | 216° |
| 2026-05-06 04:18 | 50.22796 | 9.04794 | 8114 ft | 268 kts | 216° |
| 2026-05-06 04:19 | 50.21256 | 9.03169 | 7420 ft | 267 kts | 216° |
| 2026-05-06 04:19 | 50.19723 | 9.01545 | 6824 ft | 266 kts | 216° |
| 2026-05-06 04:19 | 50.18223 | 8.99949 | 6536 ft | 255 kts | 216° |
| 2026-05-06 04:19 | 50.16767 | 8.98401 | 6252 ft | 251 kts | 216° |
| 2026-05-06 04:20 | 50.15375 | 8.96856 | 6093 ft | 240 kts | 224° |
| 2026-05-06 04:20 | 50.14415 | 8.94820 | 5887 ft | 230 kts | 245° |
| 2026-05-06 04:20 | 50.13826 | 8.92527 | 5602 ft | 226 kts | 250° |
| 2026-05-06 04:20 | 50.13301 | 8.90229 | 5302 ft | 223 kts | 250° |
| 2026-05-06 04:21 | 50.12777 | 8.87972 | 5007 ft | 220 kts | 250° |
| 2026-05-06 04:21 | 50.12254 | 8.85744 | 4711 ft | 218 kts | 250° |
| 2026-05-06 04:21 | 50.11733 | 8.83531 | 4444 ft | 214 kts | 250° |
| 2026-05-06 04:21 | 50.11227 | 8.81384 | 4139 ft | 208 kts | 250° |
| 2026-05-06 04:22 | 50.10739 | 8.79315 | 3865 ft | 200 kts | 250° |
| 2026-05-06 04:22 | 50.10272 | 8.77339 | 3601 ft | 188 kts | 250° |
| 2026-05-06 04:22 | 50.09834 | 8.75484 | 3353 ft | 177 kts | 249° |
| 2026-05-06 04:23 | 50.09009 | 8.71997 | 2886 ft | 168 kts | 250° |
| 2026-05-06 04:23 | 50.08608 | 8.70302 | 2662 ft | 166 kts | 250° |
| 2026-05-06 04:23 | 50.08211 | 8.68627 | 2438 ft | 164 kts | 249° |
| 2026-05-06 04:23 | 50.07821 | 8.66986 | 2233 ft | 163 kts | 249° |
| 2026-05-06 04:24 | 50.07448 | 8.65412 | 2011 ft | 149 kts | 249° |
| 2026-05-06 04:24 | 50.07097 | 8.63936 | 1810 ft | 143 kts | 248° |
| 2026-05-06 04:24 | 50.06756 | 8.62500 | 1631 ft | 140 kts | 248° |
| 2026-05-06 04:24 | 50.06416 | 8.61072 | 1433 ft | 141 kts | 247° |
| 2026-05-06 04:25 | 50.06076 | 8.59642 | 1237 ft | 142 kts | 248° |
| 2026-05-06 04:25 | 50.05733 | 8.58201 | 1039 ft | 141 kts | 247° |
| 2026-05-06 04:25 | 50.05393 | 8.56775 | 845 ft | 140 kts | 246° |
| 2026-05-06 04:25 | 50.05061 | 8.55346 | 682 ft | 140 kts | 246° |
| 2026-05-06 04:26 | 50.04723 | 8.53918 | 470 ft | 141 kts | 245° |
| 2026-05-06 04:26 | 50.04372 | 8.52523 | 356 ft | 123 kts | 247° |
| 2026-05-06 04:26 | 50.04211 | 8.51834 | 333 ft | 49 kts | 250° |
| 2026-05-06 04:26 | 50.04074 | 8.51496 | 332 ft | 30 kts | 219° |
| 2026-05-06 04:27 | 50.03949 | 8.51365 | 332 ft | 13 kts | 175° |
| 2026-05-06 04:27 | 50.03914 | 8.51472 | 335 ft | 13 kts | 77° |
| 2026-05-06 04:27 | 50.03933 | 8.51563 | 333 ft | 14 kts | 70° |
| 2026-05-06 04:27 | 50.03967 | 8.51707 | 332 ft | 15 kts | 69° |
| 2026-05-06 04:28 | 50.04007 | 8.51865 | 337 ft | 15 kts | 69° |
| 2026-05-06 04:28 | 50.04044 | 8.52023 | 337 ft | 16 kts | 70° |
| 2026-05-06 04:28 | 50.04098 | 8.52253 | 350 ft | 20 kts | 70° |
| 2026-05-06 04:28 | 50.04146 | 8.52452 | 350 ft | 20 kts | 69° |
| 2026-05-06 04:29 | 50.04179 | 8.52586 | 353 ft | 20 kts | 69° |
| 2026-05-06 04:29 | 50.04233 | 8.52811 | 355 ft | 24 kts | 70° |
| 2026-05-06 04:29 | 50.04290 | 8.53051 | 360 ft | 24 kts | 70° |
| 2026-05-06 04:29 | 50.04344 | 8.53276 | 366 ft | 20 kts | 69° |
| 2026-05-06 04:30 | 50.04388 | 8.53457 | 374 ft | 16 kts | 69° |
| 2026-05-06 04:30 | 50.04401 | 8.53626 | 375 ft | 16 kts | 86° |
| 2026-05-06 04:30 | 50.04414 | 8.53811 | 375 ft | 18 kts | 83° |
| 2026-05-06 04:30 | 50.04428 | 8.54014 | 375 ft | 20 kts | 84° |
| 2026-05-06 04:31 | 50.04442 | 8.54235 | 375 ft | 21 kts | 84° |
| 2026-05-06 04:31 | 50.04450 | 8.54482 | 370 ft | 22 kts | 98° |
| 2026-05-06 04:31 | 50.04381 | 8.54695 | 365 ft | 23 kts | 135° |
| 2026-05-06 04:31 | 50.04247 | 8.54810 | 358 ft | 25 kts | 163° |
| 2026-05-06 04:32 | 50.04085 | 8.54900 | 352 ft | 21 kts | 160° |
| 2026-05-06 04:32 | 50.03954 | 8.54977 | 357 ft | 21 kts | 159° |
| 2026-05-06 04:32 | 50.03851 | 8.55061 | 356 ft | 15 kts | 119° |
| 2026-05-06 04:32 | 50.03875 | 8.55227 | 355 ft | 18 kts | 69° |
| 2026-05-06 04:33 | 50.03922 | 8.55424 | 351 ft | 20 kts | 70° |
| 2026-05-06 04:33 | 50.03973 | 8.55639 | 354 ft | 22 kts | 69° |
| 2026-05-06 04:33 | 50.04027 | 8.55869 | 357 ft | 23 kts | 70° |
| 2026-05-06 04:33 | 50.04085 | 8.56105 | 357 ft | 24 kts | 69° |
| 2026-05-06 04:34 | 50.04144 | 8.56350 | 360 ft | 25 kts | 70° |
| 2026-05-06 04:34 | 50.04204 | 8.56600 | 360 ft | 25 kts | 70° |
| 2026-05-06 04:34 | 50.04256 | 8.56784 | 362 ft | 16 kts | 44° |
| 2026-05-06 04:34 | 50.04365 | 8.56834 | 363 ft | 17 kts | 11° |
| 2026-05-06 04:35 | 50.04468 | 8.56901 | 360 ft | 16 kts | 61° |
| 2026-05-06 04:35 | 50.04512 | 8.57081 | 361 ft | 19 kts | 69° |
| 2026-05-06 04:35 | 50.04561 | 8.57283 | 360 ft | 21 kts | 70° |
| 2026-05-06 04:35 | 50.04612 | 8.57501 | 361 ft | 22 kts | 70° |
| 2026-05-06 04:36 | 50.04667 | 8.57731 | 360 ft | 23 kts | 69° |
| 2026-05-06 04:36 | 50.04730 | 8.57919 | 363 ft | 19 kts | 43° |
| 2026-05-06 04:36 | 50.04807 | 8.58084 | 361 ft | 20 kts | 68° |
| 2026-05-06 04:36 | 50.04857 | 8.58282 | 360 ft | 20 kts | 69° |
| 2026-05-06 04:37 | 50.04908 | 8.58496 | 361 ft | 22 kts | 70° |
| 2026-05-06 04:37 | 50.04954 | 8.58691 | 362 ft | 10 kts | 70° |
| 2026-05-06 04:37 | 50.04937 | 8.58774 | 366 ft | 9 kts | 156° |
| 2026-05-06 04:37 | 50.04900 | 8.58796 | 366 ft | 2 kts | 160° |
| 2026-05-06 04:38 | 50.04898 | 8.58797 | 365 ft | 0 kts | 160° |